Bradner, Ohio
Current Conditions -  °F | °C
As of 8:53 PM on Friday 21 Nov 2014 (Local Time) from KTDZ Reporting Station
Clear Clear  
Wind Chill:   Ceiling: Unl
Heat Index: 17°   Visibility: 10mi
Dew Point:   Wind: 7mph
Humidity: 71%   Direction: 180°S
Pressure: 30.42"   Gusts: NA
Location:  41.32°N, 83.44°W
Report Text: KTDZ 220153Z AUTO 18006KT 10SM CLR M08/M13 A3042 RMK AO2 SLP311 T10831128 TSNO
Loading
Personal Weather Stations






























Interactive Weather Map New forecast layout! Learn more

10-Day Weather Forecast

Advertisements
Track Severe Weather on mobile